sensor_id;sensor_type;location;lat;lon;timestamp;P1;durP1;ratioP1;P2;durP2;ratioP2
45734;SDS011;31446;49.632;8.328;2023-05-10T00:01:05;2.72;;;1.55;;
45734;SDS011;31446;49.632;8.328;2023-05-10T00:16:12;2.92;;;1.77;;
45734;SDS011;31446;49.632;8.328;2023-05-10T00:31:19;2.40;;;2.20;;
45734;SDS011;31446;49.632;8.328;2023-05-10T00:46:25;2.20;;;2.00;;
45734;SDS011;31446;49.632;8.328;2023-05-10T01:01:32;3.40;;;1.90;;
45734;SDS011;31446;49.632;8.328;2023-05-10T01:16:39;7.40;;;1.92;;
45734;SDS011;31446;49.632;8.328;2023-05-10T01:47:24;3.28;;;2.25;;
45734;SDS011;31446;49.632;8.328;2023-05-10T02:02:36;5.80;;;2.33;;
45734;SDS011;31446;49.632;8.328;2023-05-10T02:17:46;4.65;;;2.72;;
45734;SDS011;31446;49.632;8.328;2023-05-10T02:32:53;8.65;;;2.50;;
45734;SDS011;31446;49.632;8.328;2023-05-10T02:48:03;8.63;;;2.63;;
45734;SDS011;31446;49.632;8.328;2023-05-10T03:03:10;7.45;;;2.88;;
45734;SDS011;31446;49.632;8.328;2023-05-10T03:18:18;3.83;;;2.90;;
45734;SDS011;31446;49.632;8.328;2023-05-10T03:33:28;7.90;;;3.72;;
45734;SDS011;31446;49.632;8.328;2023-05-10T03:48:35;8.40;;;2.97;;
45734;SDS011;31446;49.632;8.328;2023-05-10T04:03:41;5.75;;;2.80;;
45734;SDS011;31446;49.632;8.328;2023-05-10T04:18:48;9.15;;;2.90;;
45734;SDS011;31446;49.632;8.328;2023-05-10T04:33:54;7.60;;;3.22;;
45734;SDS011;31446;49.632;8.328;2023-05-10T04:49:05;18.70;;;5.00;;
45734;SDS011;31446;49.632;8.328;2023-05-10T05:19:26;6.85;;;4.75;;
45734;SDS011;31446;49.632;8.328;2023-05-10T05:34:32;10.85;;;5.50;;
45734;SDS011;31446;49.632;8.328;2023-05-10T05:49:38;12.18;;;6.90;;
45734;SDS011;31446;49.632;8.328;2023-05-10T06:04:44;9.90;;;4.90;;
45734;SDS011;31446;49.632;8.328;2023-05-10T06:19:50;6.15;;;4.10;;
45734;SDS011;31446;49.632;8.328;2023-05-10T06:34:57;4.45;;;3.10;;
45734;SDS011;31446;49.632;8.328;2023-05-10T06:50:03;3.80;;;2.03;;
45734;SDS011;31446;49.632;8.328;2023-05-10T07:05:10;3.13;;;1.67;;
45734;SDS011;31446;49.632;8.328;2023-05-10T07:20:17;4.68;;;1.17;;
45734;SDS011;31446;49.632;8.328;2023-05-10T07:35:24;1.40;;;1.13;;
45734;SDS011;31446;49.632;8.328;2023-05-10T07:50:30;4.18;;;1.20;;
45734;SDS011;31446;49.632;8.328;2023-05-10T08:05:36;8.68;;;0.77;;
45734;SDS011;31446;49.632;8.328;2023-05-10T08:20:43;1.90;;;0.50;;
45734;SDS011;31446;49.632;8.328;2023-05-10T08:35:49;4.22;;;0.57;;
45734;SDS011;31446;49.632;8.328;2023-05-10T08:50:55;0.30;;;0.30;;
45734;SDS011;31446;49.632;8.328;2023-05-10T09:06:04;0.60;;;0.60;;
45734;SDS011;31446;49.632;8.328;2023-05-10T09:21:11;0.85;;;0.70;;
45734;SDS011;31446;49.632;8.328;2023-05-10T09:36:19;5.85;;;0.68;;
45734;SDS011;31446;49.632;8.328;2023-05-10T09:51:25;4.40;;;0.70;;
45734;SDS011;31446;49.632;8.328;2023-05-10T10:06:34;0.80;;;0.80;;
45734;SDS011;31446;49.632;8.328;2023-05-10T10:21:41;2.88;;;0.50;;
45734;SDS011;31446;49.632;8.328;2023-05-10T10:36:47;0.90;;;0.30;;
45734;SDS011;31446;49.632;8.328;2023-05-10T11:07:28;4.50;;;0.60;;
45734;SDS011;31446;49.632;8.328;2023-05-10T11:22:35;0.80;;;0.80;;
45734;SDS011;31446;49.632;8.328;2023-05-10T11:37:55;4.70;;;0.73;;
45734;SDS011;31446;49.632;8.328;2023-05-10T11:53:01;2.40;;;0.82;;
45734;SDS011;31446;49.632;8.328;2023-05-10T12:08:14;2.92;;;0.73;;
45734;SDS011;31446;49.632;8.328;2023-05-10T12:23:25;8.73;;;1.00;;
45734;SDS011;31446;49.632;8.328;2023-05-10T12:38:33;3.92;;;0.88;;
45734;SDS011;31446;49.632;8.328;2023-05-10T12:53:40;5.45;;;1.00;;
45734;SDS011;31446;49.632;8.328;2023-05-10T13:08:48;3.72;;;0.77;;
45734;SDS011;31446;49.632;8.328;2023-05-10T13:23:55;1.83;;;0.93;;
45734;SDS011;31446;49.632;8.328;2023-05-10T13:39:01;1.08;;;0.50;;
45734;SDS011;31446;49.632;8.328;2023-05-10T13:54:08;3.70;;;0.77;;
45734;SDS011;31446;49.632;8.328;2023-05-10T14:09:14;1.65;;;0.70;;
45734;SDS011;31446;49.632;8.328;2023-05-10T14:24:20;7.53;;;0.40;;
45734;SDS011;31446;49.632;8.328;2023-05-10T14:39:27;2.63;;;0.55;;
45734;SDS011;31446;49.632;8.328;2023-05-10T14:54:33;3.25;;;0.45;;
45734;SDS011;31446;49.632;8.328;2023-05-10T15:09:40;0.88;;;0.32;;
45734;SDS011;31446;49.632;8.328;2023-05-10T15:24:46;1.65;;;0.40;;
45734;SDS011;31446;49.632;8.328;2023-05-10T15:39:52;1.05;;;0.40;;
45734;SDS011;31446;49.632;8.328;2023-05-10T15:55:05;0.68;;;0.20;;
45734;SDS011;31446;49.632;8.328;2023-05-10T16:10:14;1.67;;;0.55;;
45734;SDS011;31446;49.632;8.328;2023-05-10T16:25:20;5.20;;;0.57;;
45734;SDS011;31446;49.632;8.328;2023-05-10T16:40:27;1.35;;;0.32;;
45734;SDS011;31446;49.632;8.328;2023-05-10T16:55:33;1.00;;;0.40;;
45734;SDS011;31446;49.632;8.328;2023-05-10T17:10:41;2.40;;;0.30;;
45734;SDS011;31446;49.632;8.328;2023-05-10T17:25:50;3.63;;;0.50;;
45734;SDS011;31446;49.632;8.328;2023-05-10T17:40:57;2.55;;;0.50;;
45734;SDS011;31446;49.632;8.328;2023-05-10T17:56:04;1.98;;;0.40;;
45734;SDS011;31446;49.632;8.328;2023-05-10T18:11:12;5.88;;;0.38;;
45734;SDS011;31446;49.632;8.328;2023-05-10T18:26:27;1.35;;;0.40;;
45734;SDS011;31446;49.632;8.328;2023-05-10T18:41:33;0.38;;;0.20;;
45734;SDS011;31446;49.632;8.328;2023-05-10T18:56:39;0.40;;;0.38;;
45734;SDS011;31446;49.632;8.328;2023-05-10T19:11:49;2.55;;;0.47;;
45734;SDS011;31446;49.632;8.328;2023-05-10T19:26:57;2.13;;;0.50;;
45734;SDS011;31446;49.632;8.328;2023-05-10T19:42:03;2.60;;;0.40;;
45734;SDS011;31446;49.632;8.328;2023-05-10T20:27:58;0.55;;;0.20;;
45734;SDS011;31446;49.632;8.328;2023-05-10T20:58:57;3.10;;;0.35;;
45734;SDS011;31446;49.632;8.328;2023-05-10T21:14:05;2.58;;;0.57;;
45734;SDS011;31446;49.632;8.328;2023-05-10T21:29:12;1.70;;;0.60;;
45734;SDS011;31446;49.632;8.328;2023-05-10T21:44:18;2.05;;;0.50;;
45734;SDS011;31446;49.632;8.328;2023-05-10T21:59:25;4.57;;;0.60;;
45734;SDS011;31446;49.632;8.328;2023-05-10T22:14:35;1.45;;;0.60;;
45734;SDS011;31446;49.632;8.328;2023-05-10T22:29:44;2.15;;;0.70;;
45734;SDS011;31446;49.632;8.328;2023-05-10T22:44:52;3.97;;;0.80;;
45734;SDS011;31446;49.632;8.328;2023-05-10T23:00:00;1.65;;;0.90;;
45734;SDS011;31446;49.632;8.328;2023-05-10T23:15:08;1.15;;;0.65;;
45734;SDS011;31446;49.632;8.328;2023-05-10T23:30:16;1.52;;;0.98;;
45734;SDS011;31446;49.632;8.328;2023-05-10T23:45:22;1.15;;;1.05;;
